Glendon, North Carolina
Current Conditions -  °F | °C
As of 7:15 PM on Tuesday 25 Nov 2014 (Local Time) from K5W8 Reporting Station
Overcast Overcast  
Wind Chill: 53°   Ceiling: 2400
Heat Index: 53°   Visibility: 10mi
Dew Point: 43°   Wind: 0mph
Humidity: 70%   Direction: NA
Pressure: 30.09"   Gusts: NA
Location:  35.4616°N, 79.5721°W
Report Text: K5W8 260015Z AUTO 00000KT 10SM OVC024 12/06 A3009 RMK AO2 T01150061
Loading
Personal Weather Stations






























Interactive Weather Map New forecast layout! Learn more

10-Day Weather Forecast

Advertisements
Track Severe Weather on mobile